Time;durP1;ratioP1;P1;durP2;ratioP2;P2;SDS_P1;SDS_P2;PMS_P1;PMS_P2;Temp;Humidity;BMP_temperature;BMP_pressure;BME280_temperature;BME280_humidity;BME280_pressure;Samples;Min_cycle;Max_cycle;Signal;HPM_P1;HPM_P2
2023/04/30 00:00:31;;;;;;;6.97;5.55;;;;;;;12.51;75.25;96962.94;6245578;23;20034;-79
2023/04/30 00:02:58;;;;;;;8.35;5.68;;;;;;;12.45;72.61;96964.47;6245183;22;20415;-79
2023/04/30 00:05:26;;;;;;;7.00;5.35;;;;;;;12.41;75.39;96963.22;6245628;23;20020;-79
2023/04/30 00:07:53;;;;;;;9.13;6.30;;;;;;;12.45;77.40;96961.06;6245093;23;20544;-79
2023/04/30 00:10:21;;;;;;;7.45;5.78;;;;;;;12.47;77.66;96972.97;6245439;23;20357;-79
2023/04/30 00:12:48;;;;;;;8.05;6.05;;;;;;;12.41;72.83;96976.31;6244876;22;20031;-79
2023/04/30 00:15:17;;;;;;;7.15;6.07;;;;;;;12.41;76.37;96978.13;6245110;23;20031;-79
2023/04/30 00:17:45;;;;;;;7.43;6.10;;;;;;;12.45;77.60;96987.22;6245815;23;20020;-79
2023/04/30 00:20:13;;;;;;;9.35;6.43;;;;;;;12.43;74.79;96971.69;6245497;23;20062;-79
2023/04/30 00:25:16;;;;;;;7.22;6.18;;;;;;;12.32;72.09;96975.59;6214300;23;20713;-81
2023/04/30 00:30:22;;;;;;;7.07;5.80;;;;;;;12.26;72.21;96978.94;6238152;22;20022;-82
2023/04/30 00:32:50;;;;;;;7.43;6.05;;;;;;;12.27;72.95;96972.72;6262190;22;20008;-80
2023/04/30 00:38:00;;;;;;;8.20;6.18;;;;;;;12.26;72.55;96973.72;6229907;22;20028;-81
2023/04/30 00:45:54;;;;;;;7.33;6.10;;;;;;;12.27;75.95;96983.19;6234308;22;20305;-81
2023/04/30 00:48:23;;;;;;;8.63;7.10;;;;;;;12.28;77.49;96984.81;6243726;23;20293;-81
2023/04/30 00:50:53;;;;;;;7.22;6.45;;;;;;;12.31;77.83;96989.69;6241635;22;21302;-80
2023/04/30 00:53:22;;;;;;;7.20;6.20;;;;;;;12.27;76.42;96983.19;6269034;22;20031;-81
2023/04/30 00:55:50;;;;;;;7.57;6.35;;;;;;;12.26;77.78;96994.63;6273950;22;20000;-81
2023/04/30 01:03:45;;;;;;;8.63;6.40;;;;;;;12.18;72.30;96981.69;6214024;23;20000;-80
2023/04/30 01:08:52;;;;;;;7.60;6.38;;;;;;;12.18;76.94;96979.06;6274047;22;20055;-81
2023/04/30 01:16:46;;;;;;;9.55;6.72;;;;;;;12.05;70.22;96984.13;6237320;22;20028;-81
2023/04/30 01:22:01;;;;;;;8.07;6.65;;;;;;;11.94;70.00;96988.00;6231700;22;20011;-81
2023/04/30 01:24:50;;;;;;;8.20;6.65;;;;;;;11.90;72.25;96987.53;6273962;22;20028;-81
2023/04/30 01:29:57;;;;;;;9.80;6.65;;;;;;;11.84;70.13;96980.38;6212811;23;20084;-80
2023/04/30 01:32:25;;;;;;;7.53;6.13;;;;;;;11.85;71.72;96974.19;6212918;23;20005;-80
2023/04/30 01:40:24;;;;;;;7.27;6.13;;;;;;;11.83;71.36;96988.41;6233069;22;20023;-81
2023/04/30 01:43:05;;;;;;;9.15;7.15;;;;;;;11.86;72.01;96991.47;6228905;22;20274;-80
2023/04/30 01:48:43;;;;;;;8.65;6.63;;;;;;;11.85;71.76;96989.88;6231012;22;20032;-81
2023/04/30 01:53:47;;;;;;;8.63;7.57;;;;;;;11.92;75.54;96987.38;6230305;22;20029;-81
2023/04/30 01:59:04;;;;;;;8.63;7.30;;;;;;;11.86;72.02;96985.44;6218413;22;20009;-81
2023/04/30 02:01:34;;;;;;;8.52;6.65;;;;;;;11.80;73.04;96989.56;6245641;22;20008;-82
2023/04/30 02:04:03;;;;;;;8.80;7.40;;;;;;;11.77;71.54;96981.31;6273226;22;20083;-82
2023/04/30 02:09:09;;;;;;;9.55;7.75;;;;;;;11.77;72.93;96979.50;6227707;22;20007;-81
2023/04/30 02:16:56;;;;;;;13.15;8.05;;;;;;;11.62;71.57;96970.84;6234473;22;20008;-81
2023/04/30 02:27:33;;;;;;;9.63;8.57;;;;;;;11.85;77.19;96970.75;6226084;22;20024;-81
2023/04/30 02:32:44;;;;;;;11.48;9.68;;;;;;;11.92;77.98;96980.34;6219824;22;20036;-81
2023/04/30 02:43:18;;;;;;;13.25;9.82;;;;;;;11.79;75.58;96972.28;6237593;22;20015;-81
2023/04/30 02:51:06;;;;;;;9.23;7.85;;;;;;;11.65;70.22;96980.91;6239223;22;20008;-82
2023/04/30 02:53:34;;;;;;;11.80;9.10;;;;;;;11.60;69.69;96980.66;6272375;22;20055;-81
2023/04/30 02:56:03;;;;;;;10.70;8.82;;;;;;;11.53;69.20;96980.56;6275047;22;20011;-81
2023/04/30 03:03:57;;;;;;;11.33;8.83;;;;;;;11.55;73.51;96974.16;6230282;22;20253;-81
2023/04/30 03:06:27;;;;;;;10.90;9.45;;;;;;;11.60;74.16;96964.97;6244504;23;20235;-81
2023/04/30 03:08:55;;;;;;;11.27;9.48;;;;;;;11.66;76.07;96969.50;6244373;23;20005;-81
2023/04/30 03:11:24;;;;;;;12.43;10.15;;;;;;;11.68;72.89;96972.75;6242280;22;20004;-81
2023/04/30 03:13:53;;;;;;;9.77;8.57;;;;;;;11.66;73.01;96970.28;6274798;22;20000;-80
2023/04/30 03:18:58;;;;;;;12.50;9.95;;;;;;;11.68;71.48;96967.50;6240898;22;20015;-81
2023/04/30 03:21:28;;;;;;;11.70;9.02;;;;;;;11.61;71.32;96971.81;6245392;22;20031;-80
2023/04/30 03:23:57;;;;;;;10.57;8.73;;;;;;;11.52;71.91;96974.53;6245316;22;20032;-81
2023/04/30 03:29:00;;;;;;;10.98;9.38;;;;;;;11.49;71.15;96967.03;6225440;22;19997;-80
2023/04/30 03:31:30;;;;;;;12.15;9.40;;;;;;;11.48;71.93;96967.22;6244098;23;20051;-81
2023/04/30 03:33:59;;;;;;;11.02;9.70;;;;;;;11.51;75.15;96970.28;6244302;22;20016;-80
2023/04/30 03:38:59;;;;;;;11.60;9.73;;;;;;;11.59;72.80;96973.78;6244606;23;20093;-81
2023/04/30 03:41:27;;;;;;;12.32;11.02;;;;;;;11.56;74.58;96964.50;6243525;23;20009;-80
2023/04/30 03:43:56;;;;;;;12.48;9.82;;;;;;;11.50;71.52;96965.22;6244253;23;20012;-80
2023/04/30 03:46:24;;;;;;;14.43;9.88;;;;;;;11.44;70.71;96964.16;6244126;23;20007;-81
2023/04/30 03:48:53;;;;;;;9.98;8.90;;;;;;;11.43;71.73;96959.91;6243985;23;20004;-81
2023/04/30 03:54:07;;;;;;;11.60;9.60;;;;;;;11.37;69.85;96955.41;6218957;22;20004;-81
2023/04/30 03:56:36;;;;;;;10.75;9.23;;;;;;;11.32;69.57;96955.09;6243807;23;20008;-81
2023/04/30 03:59:05;;;;;;;13.50;9.45;;;;;;;11.25;69.28;96962.84;6244076;23;20035;-81
2023/04/30 04:04:10;;;;;;;9.95;8.88;;;;;;;11.20;69.99;96956.53;6303665;22;20055;-80
2023/04/30 04:06:38;;;;;;;11.05;9.38;;;;;;;11.16;69.09;96948.25;6305437;22;20015;-81
2023/04/30 04:09:08;;;;;;;13.00;10.38;;;;;;;11.09;69.04;96952.56;6305471;22;20006;-81
2023/04/30 04:14:12;;;;;;;11.25;9.05;;;;;;;11.06;69.75;96958.09;6243537;23;20067;-80
2023/04/30 04:16:40;;;;;;;11.55;8.93;;;;;;;11.05;69.38;96962.53;6243769;23;20008;-81
2023/04/30 04:19:09;;;;;;;10.82;8.80;;;;;;;11.04;68.97;96963.53;6243562;23;20032;-80
2023/04/30 04:21:38;;;;;;;10.45;9.07;;;;;;;11.01;68.91;96960.44;6243675;23;20008;-79
2023/04/30 04:24:09;;;;;;;11.13;8.90;;;;;;;10.97;69.14;96959.97;6243853;23;20060;-81
2023/04/30 04:26:37;;;;;;;13.65;10.07;;;;;;;10.94;68.91;96970.78;6243999;23;20028;-81
2023/04/30 04:29:07;;;;;;;13.25;9.82;;;;;;;10.90;68.80;96967.69;6243711;23;20004;-82
2023/04/30 04:31:36;;;;;;;11.05;9.88;;;;;;;10.87;68.75;96970.66;6243650;23;20051;-80
2023/04/30 04:36:40;;;;;;;11.63;8.95;;;;;;;10.80;68.74;96976.72;6240657;22;20056;-81
2023/04/30 04:39:10;;;;;;;10.13;8.80;;;;;;;10.79;68.78;96975.13;6243655;23;20028;-81
2023/04/30 04:41:38;;;;;;;11.52;9.10;;;;;;;10.77;68.82;96974.47;6246658;23;20020;-80
2023/04/30 04:44:07;;;;;;;10.82;9.07;;;;;;;10.76;68.84;96980.66;6273956;22;20008;-80
2023/04/30 04:46:37;;;;;;;10.60;9.40;;;;;;;10.74;68.75;96978.25;6274419;22;20064;-81
2023/04/30 04:49:06;;;;;;;12.80;9.85;;;;;;;10.72;68.95;96983.63;6274046;22;20005;-81
2023/04/30 04:51:34;;;;;;;11.18;9.23;;;;;;;10.71;68.98;96984.63;6252695;22;20813;-81
2023/04/30 04:54:03;;;;;;;10.20;8.82;;;;;;;10.70;69.10;96980.38;6273846;22;20004;-81
2023/04/30 04:56:33;;;;;;;11.68;9.07;;;;;;;10.71;69.06;96979.41;6274045;22;20027;-81
2023/04/30 04:59:01;;;;;;;11.00;9.68;;;;;;;10.69;69.10;96984.00;6274205;22;20059;-81
2023/04/30 05:04:05;;;;;;;11.80;9.93;;;;;;;10.70;69.10;96990.81;6213799;23;20056;-81
2023/04/30 05:06:33;;;;;;;11.52;9.02;;;;;;;10.71;69.07;96999.47;6213028;23;20029;-81
2023/04/30 05:09:02;;;;;;;12.38;10.23;;;;;;;10.71;69.19;96989.84;6213358;23;20012;-81
2023/04/30 05:11:31;;;;;;;10.80;9.38;;;;;;;10.74;69.19;96990.50;6213111;23;20009;-81
2023/04/30 05:14:00;;;;;;;12.45;9.18;;;;;;;10.73;69.14;96992.28;6213360;23;20008;-81
2023/04/30 05:16:28;;;;;;;12.48;9.68;;;;;;;10.76;69.02;96994.56;6213214;23;20031;-81
2023/04/30 05:18:56;;;;;;;10.05;8.93;;;;;;;10.80;68.99;96997.59;6213455;23;20012;-82
2023/04/30 05:21:28;;;;;;;11.07;8.80;;;;;;;10.80;68.80;96989.78;6213038;23;20004;-81
2023/04/30 05:29:38;;;;;;;11.20;9.57;;;;;;;10.85;68.34;96988.28;6240268;22;20007;-80
2023/04/30 05:32:07;;;;;;;10.75;9.20;;;;;;;10.87;68.39;96999.38;6252210;22;20253;-81
2023/04/30 05:34:36;;;;;;;11.30;9.73;;;;;;;10.89;68.44;96988.75;6242226;22;20076;-80
2023/04/30 05:37:04;;;;;;;13.18;9.45;;;;;;;10.92;68.58;96989.22;6242957;23;20005;-82
2023/04/30 05:39:32;;;;;;;15.00;9.93;;;;;;;10.95;68.40;96989.84;6243477;23;20005;-81
2023/04/30 05:42:02;;;;;;;11.43;9.65;;;;;;;10.97;68.35;96983.47;6250788;22;20011;-81
2023/04/30 05:44:30;;;;;;;24.25;11.18;;;;;;;10.98;68.18;96981.69;6234929;22;20000;-80
2023/04/30 05:47:00;;;;;;;14.45;10.57;;;;;;;10.97;68.19;96988.69;6243328;23;20031;-82
2023/04/30 05:49:29;;;;;;;11.20;10.02;;;;;;;10.99;68.11;96989.31;6243063;23;20061;-80
2023/04/30 05:52:00;;;;;;;12.48;9.82;;;;;;;11.00;67.90;96996.19;6250664;22;20025;-80
2023/04/30 05:54:28;;;;;;;12.52;9.32;;;;;;;11.04;67.94;96996.63;6273357;22;20034;-82
2023/04/30 05:56:57;;;;;;;10.70;9.05;;;;;;;11.05;67.56;96993.84;6262525;22;20009;-80
2023/04/30 05:59:25;;;;;;;11.05;9.95;;;;;;;11.08;67.54;96998.72;6243550;23;20031;-81
2023/04/30 06:01:54;;;;;;;12.30;8.90;;;;;;;11.12;67.49;96989.53;6243433;22;20027;-80
2023/04/30 06:04:26;;;;;;;11.65;9.70;;;;;;;11.17;67.32;96996.03;6244631;22;20005;-80
2023/04/30 06:06:54;;;;;;;15.48;10.88;;;;;;;11.18;67.24;96992.47;6245468;22;20016;-80
2023/04/30 06:09:23;;;;;;;12.07;9.65;;;;;;;11.21;67.32;96999.94;6245462;22;20008;-81
2023/04/30 06:11:51;;;;;;;13.75;10.93;;;;;;;11.25;67.18;97006.44;6244979;22;20015;-80
2023/04/30 06:14:21;;;;;;;11.85;9.98;;;;;;;11.27;67.37;97007.88;6245371;22;20031;-79
2023/04/30 06:16:50;;;;;;;14.23;10.77;;;;;;;11.30;66.84;97006.72;6245196;22;20007;-80
2023/04/30 06:19:19;;;;;;;12.10;10.23;;;;;;;11.34;66.87;97007.97;6245095;22;20052;-81
2023/04/30 06:21:52;;;;;;;12.10;10.90;;;;;;;11.38;66.89;97017.09;6244424;22;20011;-79
2023/04/30 06:24:20;;;;;;;12.18;10.75;;;;;;;11.41;66.72;97008.88;6245050;22;20011;-80
2023/04/30 06:26:48;;;;;;;14.48;10.95;;;;;;;11.45;66.50;97004.94;6244819;22;20025;-80
2023/04/30 06:29:17;;;;;;;13.30;10.90;;;;;;;11.48;66.13;97009.03;6245158;22;20005;-81
2023/04/30 06:31:45;;;;;;;13.43;10.73;;;;;;;11.52;66.24;97011.09;6244774;22;20032;-81
2023/04/30 06:34:15;;;;;;;11.00;9.70;;;;;;;11.60;66.23;97007.59;6244654;22;20064;-81
2023/04/30 06:36:43;;;;;;;14.38;10.35;;;;;;;11.68;65.77;97010.13;6240659;22;20005;-80
2023/04/30 06:39:16;;;;;;;11.43;10.10;;;;;;;11.75;65.57;97005.00;6244810;23;20017;-81
2023/04/30 06:44:26;;;;;;;11.85;10.57;;;;;;;11.90;65.24;97013.69;6232961;22;20027;-81
2023/04/30 06:46:55;;;;;;;15.40;10.63;;;;;;;11.98;65.18;97009.34;6244953;23;20016;-81
2023/04/30 06:49:25;;;;;;;11.13;9.90;;;;;;;12.06;65.30;97006.66;6238383;22;20001;-80
2023/04/30 06:51:54;;;;;;;12.98;11.02;;;;;;;12.14;64.86;97011.81;6240055;22;20016;-81
2023/04/30 06:54:25;;;;;;;12.05;9.15;;;;;;;12.21;64.34;97014.50;6275509;22;20020;-81
2023/04/30 06:59:35;;;;;;;13.60;9.75;;;;;;;12.39;63.40;97011.50;6216143;23;20264;-81
2023/04/30 07:02:04;;;;;;;17.23;10.18;;;;;;;12.48;63.13;97015.63;6216274;23;20009;-81
2023/04/30 07:17:56;;;;;;;12.23;9.90;;;;;;;12.98;61.25;97016.56;6243399;22;20032;-81
2023/04/30 07:20:25;;;;;;;10.80;9.70;;;;;;;13.05;60.84;97017.44;6244010;23;20001;-81
2023/04/30 07:25:21;;;;;;;10.32;8.73;;;;;;;13.26;62.36;97014.00;6242169;22;20023;-82
2023/04/30 07:27:52;;;;;;;9.93;8.57;;;;;;;13.40;59.97;97014.97;6242733;22;20076;-85
2023/04/30 07:30:21;;;;;;;10.10;8.98;;;;;;;13.49;59.92;97011.22;6244176;23;20001;-80
2023/04/30 07:32:52;;;;;;;10.68;9.13;;;;;;;13.58;59.42;97015.31;6239408;22;20009;-81
2023/04/30 07:35:23;;;;;;;11.55;8.50;;;;;;;13.66;58.63;97016.16;6244530;23;20059;-81
2023/04/30 07:37:51;;;;;;;10.82;9.32;;;;;;;13.74;58.70;97008.97;6244671;23;20001;-81
2023/04/30 07:40:20;;;;;;;9.25;8.38;;;;;;;13.84;58.88;97005.19;6241872;22;20060;-82
2023/04/30 07:43:03;;;;;;;9.00;8.10;;;;;;;13.96;58.47;97014.97;6266949;23;20071;-81
2023/04/30 07:45:33;;;;;;;9.82;8.82;;;;;;;14.05;57.34;97015.63;6277101;23;20020;-82
2023/04/30 07:50:48;;;;;;;12.85;8.65;;;;;;;14.14;55.89;97000.53;6245641;22;20061;-82
2023/04/30 07:53:20;;;;;;;9.05;6.93;;;;;;;14.24;55.80;97011.50;6270229;23;20019;-82
2023/04/30 07:55:50;;;;;;;8.70;7.90;;;;;;;14.36;55.08;97002.03;6249361;22;20038;-81
2023/04/30 07:58:23;;;;;;;8.02;7.15;;;;;;;14.45;54.30;97007.13;6275053;22;20008;-82
2023/04/30 08:03:21;;;;;;;8.02;7.22;;;;;;;14.42;53.39;97011.75;6174275;23;20418;-78
2023/04/30 08:05:50;;;;;;;9.45;7.85;;;;;;;14.34;53.42;97016.34;6176340;23;20032;-77
2023/04/30 08:08:17;;;;;;;10.43;7.72;;;;;;;14.28;53.82;97015.34;6157617;23;20021;-77
2023/04/30 08:10:45;;;;;;;8.27;7.40;;;;;;;14.26;54.00;97009.47;6161145;23;20032;-77
2023/04/30 08:13:12;;;;;;;10.43;9.18;;;;;;;14.29;53.91;97011.69;6186761;23;20021;-77
2023/04/30 08:15:40;;;;;;;11.05;8.68;;;;;;;14.29;54.42;97008.28;6185866;23;20085;-77
2023/04/30 08:18:07;;;;;;;10.55;8.48;;;;;;;14.30;54.42;97008.09;6185769;23;20021;-77
2023/04/30 08:20:35;;;;;;;11.50;7.93;;;;;;;14.30;54.12;97004.63;6190712;23;20031;-80
2023/04/30 08:23:06;;;;;;;8.75;7.85;;;;;;;14.30;54.30;97005.47;6185627;23;20390;-77
2023/04/30 08:25:34;;;;;;;9.45;7.70;;;;;;;14.32;54.13;96997.38;6185696;23;20032;-78
2023/04/30 08:28:01;;;;;;;7.35;6.57;;;;;;;14.38;53.84;96997.41;6185045;23;20021;-77
2023/04/30 08:30:29;;;;;;;7.43;6.68;;;;;;;14.49;53.64;97003.91;6185349;23;20056;-77
2023/04/30 08:32:56;;;;;;;7.50;5.97;;;;;;;14.58;52.02;97001.94;6185100;23;20112;-77
2023/04/30 08:35:24;;;;;;;8.07;6.38;;;;;;;14.69;51.45;96996.13;6185653;23;20045;-77
2023/04/30 08:37:52;;;;;;;6.72;5.43;;;;;;;14.79;51.69;96993.13;6185756;23;20103;-76
2023/04/30 08:40:21;;;;;;;7.25;5.60;;;;;;;14.92;50.55;97003.66;6185728;23;20025;-77
2023/04/30 08:43:10;;;;;;;6.03;4.45;;;;;;;14.94;49.83;97003.47;6185367;23;20017;-77
2023/04/30 08:45:38;;;;;;;7.13;4.80;;;;;;;14.90;48.93;96994.38;6185492;23;20101;-77
2023/04/30 08:48:11;;;;;;;5.93;4.75;;;;;;;14.82;47.80;97009.31;6185774;23;20022;-77
2023/04/30 08:50:38;;;;;;;5.90;4.45;;;;;;;14.73;48.26;96997.34;6185729;23;20410;-77
2023/04/30 08:53:08;;;;;;;7.47;6.15;;;;;;;14.64;48.54;97006.41;6185047;23;20048;-77
2023/04/30 08:55:40;;;;;;;7.65;6.25;;;;;;;14.60;48.52;97002.56;6184944;23;20072;-77
2023/04/30 08:58:09;;;;;;;5.95;5.30;;;;;;;14.58;49.14;97005.41;6185612;23;20048;-77
2023/04/30 09:00:38;;;;;;;5.22;4.72;;;;;;;14.61;49.12;97006.81;6185272;23;20597;-77
2023/04/30 09:03:07;;;;;;;3.95;3.63;;;;;;;14.60;48.18;97006.00;6184341;23;20474;-77
2023/04/30 09:05:36;;;;;;;4.82;3.58;;;;;;;14.61;47.39;97007.63;6185139;23;20378;-77
2023/04/30 09:08:04;;;;;;;5.32;3.25;;;;;;;14.60;46.16;96992.88;6185287;23;20021;-77
2023/04/30 09:10:32;;;;;;;3.53;3.03;;;;;;;14.62;47.78;97006.59;6185505;23;20104;-77
2023/04/30 09:13:03;;;;;;;4.70;3.13;;;;;;;14.63;46.76;97002.19;6184470;23;20071;-77
2023/04/30 09:15:31;;;;;;;4.13;3.35;;;;;;;14.62;46.92;97008.44;6185221;23;20017;-76
2023/04/30 09:18:11;;;;;;;4.55;3.65;;;;;;;14.65;46.86;97004.59;6185201;23;20463;-77
2023/04/30 09:20:54;;;;;;;7.10;4.93;;;;;;;14.70;47.27;97008.25;6185132;23;20405;-77
2023/04/30 09:23:22;;;;;;;5.00;3.92;;;;;;;14.73;47.50;96994.72;6184920;23;20017;-77
2023/04/30 09:25:50;;;;;;;5.20;4.68;;;;;;;14.76;47.78;97010.09;6185091;23;20021;-77
2023/04/30 09:28:22;;;;;;;3.80;2.85;;;;;;;14.76;46.22;96998.78;6185359;23;20096;-80
2023/04/30 09:30:51;;;;;;;4.30;3.35;;;;;;;14.78;46.57;96999.38;6185140;23;20099;-80
2023/04/30 09:33:19;;;;;;;4.43;3.20;;;;;;;14.80;46.14;97005.25;6184629;23;20100;-77
2023/04/30 09:35:47;;;;;;;4.93;3.40;;;;;;;14.82;45.58;96998.81;6184612;23;20029;-77
2023/04/30 09:38:29;;;;;;;4.20;3.80;;;;;;;14.95;45.33;96997.19;6185219;23;20028;-77
2023/04/30 09:40:58;;;;;;;5.38;4.03;;;;;;;15.03;45.62;97000.44;6186657;23;20274;-77
2023/04/30 09:43:27;;;;;;;4.57;3.50;;;;;;;15.08;45.35;96999.84;6186452;23;20013;-79
2023/04/30 09:45:58;;;;;;;4.63;4.13;;;;;;;15.11;45.71;96996.84;6187136;23;20044;-79
2023/04/30 09:48:27;;;;;;;10.55;4.07;;;;;;;15.13;45.59;97002.69;6186449;23;20362;-77
2023/04/30 09:50:54;;;;;;;5.30;4.00;;;;;;;15.15;45.92;96991.97;6187019;23;20021;-79
2023/04/30 09:53:23;;;;;;;5.18;4.65;;;;;;;15.24;46.55;96999.47;6186189;23;20021;-79
2023/04/30 09:55:51;;;;;;;7.38;4.75;;;;;;;15.41;46.75;96991.16;6186494;23;20538;-77
2023/04/30 09:58:19;;;;;;;7.10;5.25;;;;;;;15.62;46.44;96993.59;6186650;23;20024;-79
2023/04/30 10:00:53;;;;;;;6.63;4.57;;;;;;;15.74;45.96;96995.63;6186620;23;20337;-79
2023/04/30 10:03:22;;;;;;;4.70;4.20;;;;;;;15.84;46.28;96998.66;6186089;23;20071;-79
2023/04/30 10:05:51;;;;;;;5.75;4.80;;;;;;;15.96;45.98;96998.81;6186910;23;20021;-79
2023/04/30 10:08:26;;;;;;;5.25;4.75;;;;;;;15.99;45.60;96995.81;6186873;23;20052;-79
2023/04/30 10:10:59;;;;;;;6.15;4.68;;;;;;;15.93;46.21;96994.78;6186640;23;20060;-79
2023/04/30 10:13:30;;;;;;;;;;;;;;;15.86;46.71;97005.31;6186623;23;20017;-80
2023/04/30 10:16:04;;;;;;;7.10;5.10;;;;;;;15.73;46.87;97002.72;6186951;23;19920;-79
2023/04/30 10:18:34;;;;;;;5.57;4.97;;;;;;;15.62;47.17;97004.09;6186684;23;20021;-79
2023/04/30 10:21:08;;;;;;;6.65;5.50;;;;;;;15.59;47.07;97001.91;6186572;23;20362;-80
2023/04/30 10:23:36;;;;;;;7.40;5.82;;;;;;;15.59;47.31;97004.53;6186475;23;20021;-79
2023/04/30 10:26:04;;;;;;;6.88;5.50;;;;;;;15.63;47.45;96995.22;6186274;23;20475;-80
2023/04/30 10:28:32;;;;;;;5.30;4.80;;;;;;;15.65;48.04;96995.84;6186490;23;20029;-79
2023/04/30 10:31:02;;;;;;;5.78;5.18;;;;;;;15.63;47.65;96989.97;6186565;23;20100;-80
2023/04/30 10:33:37;;;;;;;7.85;5.72;;;;;;;15.61;46.91;96992.00;6186533;23;20032;-79
2023/04/30 10:36:08;;;;;;;6.47;5.15;;;;;;;15.57;47.65;96985.50;6186592;23;20132;-79
2023/04/30 10:38:37;;;;;;;8.68;6.25;;;;;;;15.58;47.50;96983.69;6186614;23;20021;-79
2023/04/30 10:41:08;;;;;;;5.72;5.07;;;;;;;15.60;47.24;96969.31;6186306;23;20021;-79
2023/04/30 10:43:36;;;;;;;6.90;4.75;;;;;;;15.63;47.07;96963.66;6186981;23;20048;-80
2023/04/30 10:46:05;;;;;;;4.80;4.40;;;;;;;15.62;46.92;96969.94;6185856;23;20029;-80
2023/04/30 10:48:34;;;;;;;5.78;5.15;;;;;;;15.68;46.65;96972.75;6186171;23;20029;-79
2023/04/30 10:51:02;;;;;;;6.72;5.47;;;;;;;15.66;46.69;96968.50;6185590;23;20032;-79
2023/04/30 10:53:31;;;;;;;9.02;4.05;;;;;;;15.60;46.17;96973.78;6185593;23;20481;-79
2023/04/30 10:56:05;;;;;;;7.18;4.28;;;;;;;15.54;46.13;96970.13;6186090;23;20029;-79
2023/04/30 10:58:34;;;;;;;4.78;4.30;;;;;;;15.51;46.38;96965.28;6186180;23;20100;-80
2023/04/30 11:01:07;;;;;;;5.72;4.53;;;;;;;15.50;46.45;96973.38;6185627;23;20021;-80
2023/04/30 11:03:36;;;;;;;4.18;3.80;;;;;;;15.51;46.38;96964.50;6185932;23;20406;-79
2023/04/30 11:06:12;;;;;;;5.20;4.20;;;;;;;15.53;46.20;96968.53;6186094;23;20060;-79
2023/04/30 11:08:44;;;;;;;5.85;4.13;;;;;;;15.52;46.53;96966.91;6186432;23;20029;-79
2023/04/30 11:11:17;;;;;;;4.72;4.20;;;;;;;15.50;46.60;96973.38;6185959;23;20048;-78
2023/04/30 11:13:46;;;;;;;4.57;4.18;;;;;;;15.51;46.00;96969.75;6185858;23;20021;-79
2023/04/30 11:16:18;;;;;;;6.13;3.85;;;;;;;15.57;45.95;96963.69;6191604;23;20021;-79
2023/04/30 11:18:47;;;;;;;5.68;3.80;;;;;;;15.66;46.14;96963.25;6212112;23;20025;-78
2023/04/30 11:21:14;;;;;;;5.72;3.55;;;;;;;15.76;45.39;96960.22;6210653;23;20039;-79
2023/04/30 11:23:43;;;;;;;4.72;4.25;;;;;;;15.84;44.82;96972.34;6188977;23;20017;-79
2023/04/30 11:26:11;;;;;;;5.25;3.65;;;;;;;15.94;45.00;96959.59;6187049;23;20522;-79
2023/04/30 11:28:38;;;;;;;5.10;3.85;;;;;;;16.10;45.09;96957.50;6186837;23;20021;-79
2023/04/30 11:31:06;;;;;;;3.58;3.17;;;;;;;16.25;44.35;96960.69;6186254;23;20402;-78
2023/04/30 11:33:35;;;;;;;4.72;3.55;;;;;;;16.34;44.06;96954.16;6185852;23;20025;-79
2023/04/30 11:36:03;;;;;;;4.03;3.60;;;;;;;16.42;43.69;96951.31;6186114;23;20385;-79
2023/04/30 11:38:34;;;;;;;4.00;3.22;;;;;;;16.51;44.11;96951.03;6186391;23;20031;-79
2023/04/30 11:41:02;;;;;;;7.13;3.83;;;;;;;16.60;43.48;96947.97;6186205;23;20028;-80
2023/04/30 11:43:31;;;;;;;5.82;3.80;;;;;;;16.66;43.31;96956.81;6186742;23;20025;-79
2023/04/30 11:46:07;;;;;;;5.43;3.67;;;;;;;16.65;42.83;96955.22;6185716;23;20477;-79
2023/04/30 11:48:37;;;;;;;4.65;4.15;;;;;;;16.61;43.05;96960.09;6185847;23;20072;-79
2023/04/30 11:51:14;;;;;;;4.18;3.15;;;;;;;16.58;43.01;96949.19;6185891;23;20072;-79
2023/04/30 11:53:42;;;;;;;4.35;3.28;;;;;;;16.62;43.25;96951.19;6185868;23;20104;-79
2023/04/30 11:56:09;;;;;;;4.47;3.33;;;;;;;16.66;43.18;96959.47;6185677;23;20024;-79
2023/04/30 11:58:38;;;;;;;3.28;2.97;;;;;;;16.59;41.99;96951.59;6185842;23;20059;-79
2023/04/30 12:01:08;;;;;;;3.92;2.50;;;;;;;16.51;41.97;96943.97;6185761;23;20071;-78
2023/04/30 12:03:42;;;;;;;3.33;2.78;;;;;;;16.39;41.21;96938.53;6185159;23;20021;-79
2023/04/30 12:06:11;;;;;;;3.65;2.65;;;;;;;16.37;42.17;96937.94;6185459;23;20053;-79
2023/04/30 12:08:41;;;;;;;3.55;3.10;;;;;;;16.41;41.03;96933.88;6185513;23;20132;-79
2023/04/30 12:11:20;;;;;;;3.83;3.00;;;;;;;16.43;41.78;96939.75;6185468;23;20017;-79
2023/04/30 12:13:55;;;;;;;3.95;3.08;;;;;;;16.40;42.40;96942.00;6185718;23;20025;-79
2023/04/30 12:16:24;;;;;;;3.47;3.08;;;;;;;16.35;43.30;96939.97;6203691;23;20100;-83
2023/04/30 12:18:54;;;;;;;3.78;3.47;;;;;;;16.31;42.84;96936.19;6204158;23;20065;-79
2023/04/30 12:21:22;;;;;;;4.95;3.72;;;;;;;16.23;42.97;96937.22;6196647;23;20045;-79
2023/04/30 12:23:50;;;;;;;3.67;3.38;;;;;;;16.17;43.42;96939.88;6188314;23;20063;-79
2023/04/30 12:26:17;;;;;;;4.07;3.67;;;;;;;16.14;43.48;96937.66;6187929;23;20035;-79
2023/04/30 12:28:47;;;;;;;3.40;3.00;;;;;;;16.15;43.65;96937.44;6186459;23;20032;-79
2023/04/30 12:31:17;;;;;;;6.78;3.03;;;;;;;16.20;43.52;96936.81;6185753;23;20025;-79
2023/04/30 12:33:55;;;;;;;5.93;3.50;;;;;;;16.27;44.06;96934.97;6184889;23;20029;-80
2023/04/30 12:36:28;;;;;;;4.38;3.25;;;;;;;16.36;42.91;96931.06;6185511;23;20095;-78
2023/04/30 12:39:02;;;;;;;4.55;3.05;;;;;;;16.42;42.99;96924.16;6185655;23;20021;-79
2023/04/30 12:41:29;;;;;;;3.55;3.25;;;;;;;16.48;42.74;96924.09;6185388;23;20103;-80
2023/04/30 12:44:19;;;;;;;3.17;2.83;;;;;;;16.48;41.64;96932.00;6184204;23;20021;-79
2023/04/30 12:46:47;;;;;;;3.42;3.10;;;;;;;16.42;42.45;96924.97;6184723;23;20053;-78
2023/04/30 12:49:24;;;;;;;4.65;3.00;;;;;;;16.41;42.47;96928.63;6185214;23;20017;-79
2023/04/30 12:51:56;;;;;;;4.78;3.13;;;;;;;16.44;43.33;96915.03;6186371;23;20522;-79
2023/04/30 12:54:27;;;;;;;4.70;2.60;;;;;;;16.50;42.66;96923.09;6184513;23;20017;-79
2023/04/30 12:57:00;;;;;;;3.10;2.80;;;;;;;16.55;42.74;96915.38;6185382;23;20021;-79
2023/04/30 12:59:27;;;;;;;2.72;2.50;;;;;;;16.60;42.51;96920.81;6185237;23;20021;-79
2023/04/30 13:01:55;;;;;;;3.10;2.90;;;;;;;16.61;42.49;96915.31;6184460;23;20079;-79
2023/04/30 13:04:24;;;;;;;3.58;3.10;;;;;;;16.60;42.02;96911.09;6184452;23;20028;-78
2023/04/30 13:06:52;;;;;;;3.88;2.67;;;;;;;16.59;42.45;96913.94;6184908;23;20407;-80
2023/04/30 13:09:20;;;;;;;3.20;2.90;;;;;;;16.60;42.38;96900.56;6185014;23;20021;-79
2023/04/30 13:11:49;;;;;;;2.72;2.38;;;;;;;16.66;42.16;96909.41;6184402;23;20489;-79
2023/04/30 13:14:17;;;;;;;4.43;2.67;;;;;;;16.68;42.25;96897.69;6184114;23;20104;-79
2023/04/30 13:16:45;;;;;;;4.65;2.85;;;;;;;16.72;41.88;96897.25;6184544;23;20025;-80
2023/04/30 13:19:12;;;;;;;2.60;2.40;;;;;;;16.75;41.75;96900.25;6184396;23;20025;-79
2023/04/30 13:21:41;;;;;;;3.13;2.83;;;;;;;16.79;42.14;96893.56;6184834;23;20028;-79
2023/04/30 13:24:08;;;;;;;2.97;2.67;;;;;;;16.85;41.79;96886.63;6184255;23;20021;-79
2023/04/30 13:26:36;;;;;;;3.55;2.80;;;;;;;16.90;41.55;96878.88;6184623;23;20474;-80
2023/04/30 13:29:04;;;;;;;3.78;2.38;;;;;;;16.92;41.54;96881.31;6184707;23;20035;-79
2023/04/30 13:31:31;;;;;;;3.83;2.60;;;;;;;16.89;41.32;96867.53;6184467;23;20031;-78
2023/04/30 13:33:59;;;;;;;6.30;4.82;;;;;;;16.90;42.46;96878.88;6184099;23;20044;-79
2023/04/30 13:36:28;;;;;;;3.80;3.38;;;;;;;16.94;42.46;96876.63;6184376;23;20099;-79
2023/04/30 13:38:57;;;;;;;3.60;3.30;;;;;;;16.91;42.50;96880.50;6184588;23;20108;-80
2023/04/30 13:41:25;;;;;;;4.10;3.80;;;;;;;16.84;42.52;96872.66;6184465;23;20021;-79
2023/04/30 13:43:53;;;;;;;4.22;3.15;;;;;;;16.78;42.64;96870.84;6183993;23;20088;-80
2023/04/30 13:46:20;;;;;;;2.95;2.75;;;;;;;16.77;43.09;96871.06;6184627;23;20017;-79
2023/04/30 13:48:50;;;;;;;3.53;3.13;;;;;;;16.76;43.14;96872.88;6184750;23;20099;-80
2023/04/30 13:51:18;;;;;;;4.18;3.10;;;;;;;16.76;43.93;96862.34;6184600;23;20359;-80
2023/04/30 13:53:45;;;;;;;3.40;3.00;;;;;;;16.77;43.36;96863.97;6184289;23;20336;-79
2023/04/30 13:56:15;;;;;;;4.43;3.10;;;;;;;16.75;42.56;96860.75;6184480;23;20021;-80